createdAt,value
2023-05-05T00:04:43.516Z,100118.28
2023-05-05T00:09:44.840Z,100104.53
2023-05-05T00:14:46.146Z,100096.94
2023-05-05T00:19:47.604Z,100107.72
2023-05-05T00:24:49.023Z,100109.94
2023-05-05T00:29:54.036Z,100104.25
2023-05-05T00:34:56.157Z,100106.41
2023-05-05T00:39:57.714Z,100100.03
2023-05-05T00:44:59.149Z,100101.06
2023-05-05T00:50:00.581Z,100107.63
2023-05-05T00:55:02.495Z,100093.69
2023-05-05T01:00:05.889Z,100099.72
2023-05-05T01:05:08.755Z,100096.03
2023-05-05T01:10:26.841Z,100091.34
2023-05-05T01:15:37.829Z,100097.56
2023-05-05T01:21:04.629Z,100085.28
2023-05-05T01:26:12.701Z,100086.63
2023-05-05T01:31:51.323Z,100082.28
2023-05-05T01:37:01.727Z,100081.28
2023-05-05T01:42:08.118Z,100083.31
2023-05-05T01:47:14.514Z,100067.88
2023-05-05T01:52:16.819Z,100061.84
2023-05-05T01:57:20.976Z,100062.00
2023-05-05T02:02:25.846Z,100060.84
2023-05-05T02:07:28.024Z,100042.00
2023-05-05T02:12:31.429Z,100061.19
2023-05-05T02:17:33.145Z,100059.50
2023-05-05T02:22:34.641Z,100082.66
2023-05-05T02:27:38.731Z,100076.63
2023-05-05T02:32:42.757Z,100088.72
2023-05-05T02:37:48.271Z,100088.38
2023-05-05T02:42:54.176Z,100103.16
2023-05-05T02:47:55.660Z,100102.50
2023-05-05T02:52:58.955Z,100101.81
2023-05-05T02:58:11.153Z,100108.22
2023-05-05T03:03:28.141Z,100105.16
2023-05-05T03:08:55.484Z,100112.34
2023-05-05T03:14:06.953Z,100107.97
2023-05-05T03:19:10.838Z,100109.47
2023-05-05T03:24:16.855Z,100119.25
2023-05-05T03:29:18.236Z,100119.91
2023-05-05T03:34:19.535Z,100112.84
2023-05-05T03:39:20.792Z,100105.63
2023-05-05T03:44:22.094Z,100106.63
2023-05-05T03:49:23.412Z,100123.41
2023-05-05T03:54:24.722Z,100122.56
2023-05-05T03:59:26.245Z,100112.81
2023-05-05T04:04:27.744Z,100126.25
2023-05-05T04:09:29.148Z,100127.56
2023-05-05T04:14:30.451Z,100118.97
2023-05-05T04:19:32.702Z,100107.00
2023-05-05T04:24:34.017Z,100117.09
2023-05-05T04:29:35.386Z,100109.34
2023-05-05T04:34:36.880Z,100114.16
2023-05-05T04:39:38.140Z,100134.16
2023-05-05T04:44:39.701Z,100137.84
2023-05-05T04:49:41.226Z,100138.31
2023-05-05T04:54:42.602Z,100132.78
2023-05-05T04:59:43.910Z,100141.84
2023-05-05T05:04:45.242Z,100151.88
2023-05-05T05:09:46.784Z,100153.59
2023-05-05T05:14:48.090Z,100149.50
2023-05-05T05:19:49.361Z,100154.56
2023-05-05T05:24:52.031Z,100177.75
2023-05-05T05:29:53.316Z,100164.75
2023-05-05T05:34:54.575Z,100173.28
2023-05-05T05:39:56.801Z,100153.31
2023-05-05T05:45:01.579Z,100155.19
2023-05-05T05:50:04.723Z,100170.53
2023-05-05T05:55:07.258Z,100184.81
2023-05-05T06:00:09.218Z,100189.72
2023-05-05T06:05:10.824Z,100186.38
2023-05-05T06:10:26.751Z,100195.47
2023-05-05T06:15:29.088Z,100199.56
2023-05-05T06:20:30.506Z,100204.97
2023-05-05T06:25:32.225Z,100214.09
2023-05-05T06:30:33.940Z,100213.44
2023-05-05T06:35:35.282Z,100205.03
2023-05-05T06:40:36.669Z,100198.84
2023-05-05T06:45:37.988Z,100205.72
2023-05-05T06:50:39.269Z,100197.09
2023-05-05T06:55:44.517Z,100194.25
2023-05-05T07:00:45.928Z,100200.66
2023-05-05T07:05:48.326Z,100202.00
2023-05-05T07:10:49.717Z,100206.00
2023-05-05T07:15:51.050Z,100213.22
2023-05-05T07:20:52.524Z,100209.00
2023-05-05T07:25:54.976Z,100205.44
2023-05-05T07:30:56.246Z,100213.56
2023-05-05T07:35:57.575Z,100220.16
2023-05-05T07:40:58.889Z,100217.53
2023-05-05T07:46:00.312Z,100196.63
2023-05-05T07:51:02.052Z,100198.06
2023-05-05T07:56:03.690Z,100197.28
2023-05-05T08:01:06.473Z,100192.63
2023-05-05T08:06:10.505Z,100197.63
2023-05-05T08:11:11.838Z,100210.66
2023-05-05T08:16:13.561Z,100206.75
2023-05-05T08:21:15.323Z,100202.94
2023-05-05T08:26:16.645Z,100201.34
2023-05-05T08:31:18.083Z,100195.97
2023-05-05T08:36:19.505Z,100198.66
2023-05-05T08:41:21.014Z,100203.53
2023-05-05T08:46:24.459Z,100202.69
2023-05-05T08:51:31.718Z,100210.66
2023-05-05T08:56:39.566Z,100212.19
2023-05-05T09:01:42.107Z,100197.53
2023-05-05T09:06:43.435Z,100198.66
2023-05-05T09:11:45.641Z,100209.63
2023-05-05T09:16:47.010Z,100204.13
2023-05-05T09:21:49.231Z,100199.88
2023-05-05T09:26:50.597Z,100207.44
2023-05-05T09:32:08.092Z,100198.78
2023-05-05T09:37:09.433Z,100190.09
2023-05-05T09:42:20.063Z,100194.00
2023-05-05T09:47:29.317Z,100186.56
2023-05-05T09:52:31.950Z,100173.03
2023-05-05T09:57:33.955Z,100173.56
2023-05-05T10:02:38.502Z,100172.81
2023-05-05T10:07:41.802Z,100171.41
2023-05-05T10:12:43.165Z,100150.72
2023-05-05T10:22:57.296Z,100154.56
2023-05-05T10:28:06.255Z,100137.03
2023-05-05T10:38:29.609Z,100132.69
2023-05-05T10:43:31.871Z,100125.25
2023-05-05T10:48:46.870Z,100118.72
2023-05-05T10:54:00.300Z,100117.69
2023-05-05T10:59:01.821Z,100114.19
2023-05-05T11:04:23.579Z,100112.03
2023-05-05T11:09:28.741Z,100109.44
2023-05-05T11:14:30.020Z,100100.34
2023-05-05T11:19:43.740Z,100096.63
2023-05-05T11:24:45.132Z,100084.47
2023-05-05T11:30:09.569Z,100081.06
2023-05-05T11:35:12.389Z,100080.25
2023-05-05T11:40:21.717Z,100064.28
2023-05-05T11:45:24.569Z,100069.50
2023-05-05T11:50:27.111Z,100079.28
2023-05-05T11:55:28.537Z,100063.25
2023-05-05T12:00:33.835Z,100056.28
2023-05-05T12:05:36.899Z,100057.25
2023-05-05T12:10:39.076Z,100044.91
2023-05-05T12:15:40.545Z,100038.22
2023-05-05T12:20:41.979Z,100033.94
2023-05-05T12:25:43.391Z,100044.63
2023-05-05T12:30:56.567Z,100035.13
2023-05-05T12:35:58.111Z,100027.41
2023-05-05T12:40:59.471Z,100034.78
2023-05-05T12:46:11.885Z,100029.38
2023-05-05T12:51:18.953Z,100018.03
2023-05-05T12:56:34.823Z,100040.09
2023-05-05T13:01:47.555Z,100011.75
2023-05-05T13:06:49.573Z,100000.41
2023-05-05T13:11:51.407Z,99999.28
2023-05-05T13:16:53.087Z,99981.28
2023-05-05T13:21:55.848Z,99978.00
2023-05-05T13:26:57.231Z,99972.88
2023-05-05T13:31:58.759Z,99966.50
2023-05-05T13:37:00.068Z,99953.19
2023-05-05T13:42:01.350Z,99946.44
2023-05-05T13:47:03.047Z,99936.81
2023-05-05T13:52:04.653Z,99945.25
2023-05-05T13:57:07.800Z,99928.53
2023-05-05T14:02:09.259Z,99928.03
2023-05-05T14:07:10.531Z,99934.31
2023-05-05T14:12:12.291Z,99926.75
2023-05-05T14:17:13.725Z,99928.97
2023-05-05T14:22:15.511Z,99925.19
2023-05-05T14:27:16.846Z,99928.88
2023-05-05T14:32:18.251Z,99920.66
2023-05-05T14:37:19.611Z,99925.09
2023-05-05T14:42:20.903Z,99923.00
2023-05-05T14:47:22.246Z,99926.66
2023-05-05T14:52:23.622Z,99935.09
2023-05-05T14:57:24.921Z,99933.59
2023-05-05T15:02:26.354Z,99924.19
2023-05-05T15:07:28.954Z,99940.31
2023-05-05T15:12:30.356Z,99940.81
2023-05-05T15:17:32.224Z,99937.03
2023-05-05T15:22:33.856Z,99942.50
2023-05-05T15:27:36.802Z,99947.06
2023-05-05T15:32:38.225Z,99994.28
2023-05-05T15:37:39.671Z,99996.34
2023-05-05T15:42:40.943Z,100010.03
2023-05-05T15:47:42.332Z,100011.69
2023-05-05T15:52:44.099Z,100005.91
2023-05-05T15:57:45.405Z,99996.88
2023-05-05T16:02:47.355Z,99984.22
2023-05-05T16:07:48.692Z,99974.00
2023-05-05T16:12:51.888Z,99979.44
2023-05-05T16:17:53.308Z,99975.16
2023-05-05T16:22:54.633Z,99989.13
2023-05-05T16:27:57.335Z,99991.72
2023-05-05T16:32:58.624Z,100000.97
2023-05-05T16:38:00.196Z,100003.81
2023-05-05T16:43:01.799Z,100010.84
2023-05-05T16:48:03.247Z,100006.66
2023-05-05T16:53:04.837Z,100011.84
2023-05-05T16:58:06.229Z,100019.78
2023-05-05T17:03:07.672Z,100037.03
2023-05-05T17:08:11.787Z,100023.50
2023-05-05T17:13:14.460Z,100034.19
2023-05-05T17:18:15.876Z,100037.31
2023-05-05T17:23:17.202Z,100031.69
2023-05-05T17:28:18.680Z,100026.91
2023-05-05T17:33:21.976Z,100031.09
2023-05-05T17:38:23.772Z,100036.84
2023-05-05T17:43:25.205Z,100039.91
2023-05-05T17:48:26.619Z,100045.06
2023-05-05T17:53:28.108Z,100059.06
2023-05-05T17:58:29.417Z,100049.47
2023-05-05T18:03:31.205Z,100056.47
2023-05-05T18:08:32.734Z,100058.06
2023-05-05T18:13:34.163Z,100053.50
2023-05-05T18:18:35.824Z,100055.56
2023-05-05T18:23:38.219Z,100068.38
2023-05-05T18:28:39.541Z,100056.09
2023-05-05T18:33:40.850Z,100059.66
2023-05-05T18:38:42.123Z,100077.91
2023-05-05T18:43:43.424Z,100075.56
2023-05-05T18:48:45.212Z,100075.66
2023-05-05T18:53:46.489Z,100076.91
2023-05-05T18:58:47.797Z,100085.59
2023-05-05T19:03:49.615Z,100093.69
2023-05-05T19:08:50.989Z,100096.41
2023-05-05T19:13:52.315Z,100090.91
2023-05-05T19:18:58.457Z,100089.69
2023-05-05T19:23:59.788Z,100104.25
2023-05-05T19:29:01.234Z,100102.13
2023-05-05T19:34:04.269Z,100100.75
2023-05-05T19:39:05.610Z,100111.47
2023-05-05T19:44:06.936Z,100105.38
2023-05-05T19:49:08.242Z,100105.75
2023-05-05T19:54:10.176Z,100102.31
2023-05-05T19:59:12.263Z,100101.03
2023-05-05T20:04:13.578Z,100098.88
2023-05-05T20:09:15.172Z,100105.50
2023-05-05T20:14:17.152Z,100116.88
2023-05-05T20:19:19.081Z,100115.94
2023-05-05T20:24:20.434Z,100121.72
2023-05-05T20:29:22.475Z,100115.34
2023-05-05T20:34:27.617Z,100119.00
2023-05-05T20:39:28.969Z,100118.44
2023-05-05T20:44:30.892Z,100130.09
2023-05-05T20:49:32.695Z,100139.19
2023-05-05T20:54:34.103Z,100134.34
2023-05-05T20:59:35.453Z,100130.34
2023-05-05T21:04:36.869Z,100126.06
2023-05-05T21:09:38.229Z,100131.25
2023-05-05T21:14:44.407Z,100141.41
2023-05-05T21:19:45.710Z,100138.41
2023-05-05T21:24:47.177Z,100140.00
2023-05-05T21:29:50.947Z,100134.22
2023-05-05T21:34:52.318Z,100140.41
2023-05-05T21:39:53.959Z,100137.59
2023-05-05T21:44:55.373Z,100139.25
2023-05-05T21:49:58.155Z,100136.81
2023-05-05T21:54:59.503Z,100131.97
2023-05-05T22:00:00.829Z,100129.84
2023-05-05T22:05:02.111Z,100127.84
2023-05-05T22:10:03.707Z,100130.91
2023-05-05T22:15:05.623Z,100143.13
2023-05-05T22:20:09.236Z,100131.19
2023-05-05T22:25:10.945Z,100143.84
2023-05-05T22:30:13.182Z,100133.41
2023-05-05T22:35:14.521Z,100142.50
2023-05-05T22:40:15.960Z,100139.13
2023-05-05T22:45:17.350Z,100135.31
2023-05-05T22:50:19.289Z,100147.56
2023-05-05T22:55:20.950Z,100146.91
2023-05-05T23:00:22.643Z,100154.00
2023-05-05T23:05:24.476Z,100153.19
2023-05-05T23:10:25.949Z,100156.75
2023-05-05T23:15:27.415Z,100162.50
2023-05-05T23:20:29.421Z,100164.84
2023-05-05T23:25:30.677Z,100162.16
2023-05-05T23:30:32.170Z,100176.00
2023-05-05T23:35:33.664Z,100175.63
2023-05-05T23:40:35.001Z,100163.88
2023-05-05T23:45:36.260Z,100158.81
2023-05-05T23:50:37.566Z,100157.81
2023-05-05T23:55:39.433Z,100151.75
